TimeHST,TemperatureF,Dew PointF,Humidity,Sea Level PressureIn,VisibilityMPH,Wind Direction,Wind SpeedMPH,Gust SpeedMPH,PrecipitationIn,Events,Conditions,WindDirDegrees,DateUTC
12:54 AM,69.1,66.0,90,30.00,10.0,ESE,4.6,-,N/A,,Clear,120,2012-10-18 10:54:00
1:54 AM,69.1,66.0,90,29.99,10.0,East,4.6,-,N/A,,Clear,100,2012-10-18 11:54:00
2:54 AM,66.9,64.9,93,29.99,10.0,ESE,5.8,-,N/A,,Clear,120,2012-10-18 12:54:00
3:54 AM,64.9,64.0,97,29.99,10.0,SE,3.5,-,N/A,,Clear,130,2012-10-18 13:54:00
4:54 AM,64.0,63.0,96,29.99,10.0,South,3.5,-,N/A,,Clear,170,2012-10-18 14:54:00
5:54 AM,66.0,64.9,96,30.01,10.0,ESE,6.9,-,N/A,,Clear,120,2012-10-18 15:54:00
6:54 AM,64.9,64.9,100,30.02,10.0,SE,4.6,-,N/A,,Clear,130,2012-10-18 16:54:00
7:54 AM,73.9,68.0,82,30.01,10.0,NW,5.8,-,N/A,,Partly Cloudy,320,2012-10-18 17:54:00
8:54 AM,82.0,66.9,60,30.02,10.0,ENE,13.8,19.6,N/A,,Partly Cloudy,60,2012-10-18 18:54:00
9:54 AM,82.0,70.0,67,30.02,10.0,East,19.6,28.8,N/A,,Partly Cloudy,80,2012-10-18 19:54:00
10:54 AM,86.0,69.1,57,30.01,10.0,NE,20.7,29.9,N/A,,Partly Cloudy,40,2012-10-18 20:54:00
11:54 AM,82.9,68.0,60,29.99,10.0,ENE,17.3,25.3,N/A,,Scattered Clouds,60,2012-10-18 21:54:00
12:54 PM,84.9,68.0,57,29.95,10.0,ENE,18.4,29.9,N/A,,Scattered Clouds,70,2012-10-18 22:54:00
1:54 PM,84.9,68.0,57,29.93,10.0,ENE,21.9,29.9,N/A,,Scattered Clouds,60,2012-10-18 23:54:00
2:54 PM,84.0,69.1,61,29.91,10.0,East,20.7,32.2,N/A,,Scattered Clouds,80,2012-10-19 00:54:00
3:54 PM,82.9,69.1,63,29.91,10.0,ENE,17.3,27.6,N/A,,Partly Cloudy,70,2012-10-19 01:54:00
4:54 PM,81.0,69.1,67,29.92,10.0,ENE,18.4,27.6,N/A,,Clear,70,2012-10-19 02:54:00
5:54 PM,78.1,68.0,71,29.94,10.0,ENE,15.0,20.7,N/A,,Partly Cloudy,70,2012-10-19 03:54:00
6:54 PM,77.0,66.0,69,29.97,10.0,East,13.8,-,N/A,,Partly Cloudy,80,2012-10-19 04:54:00
7:54 PM,75.9,68.0,76,30.00,10.0,East,3.5,-,N/A,,Partly Cloudy,100,2012-10-19 05:54:00
8:54 PM,75.0,68.0,79,30.02,10.0,Calm,Calm,-,N/A,,Partly Cloudy,0,2012-10-19 06:54:00
9:54 PM,71.1,68.0,90,30.03,10.0,SE,5.8,-,N/A,,Partly Cloudy,130,2012-10-19 07:54:00
10:54 PM,73.9,68.0,82,30.03,10.0,Calm,Calm,-,N/A,,Partly Cloudy,0,2012-10-19 08:54:00
11:54 PM,70.0,66.9,90,30.03,10.0,ESE,5.8,-,N/A,,Clear,110,2012-10-19 09:54:00